createdAt,value
2018-05-31T00:00:17.734Z,5.40
2018-05-31T00:02:46.141Z,5.30
2018-05-31T00:05:13.746Z,5.00
2018-05-31T00:07:41.396Z,6.00
2018-05-31T00:10:09.016Z,5.80
2018-05-31T00:12:36.646Z,5.30
2018-05-31T00:15:04.253Z,6.40
2018-05-31T00:17:31.865Z,5.70
2018-05-31T00:19:59.423Z,5.20
2018-05-31T00:22:27.072Z,5.47
2018-05-31T00:24:54.679Z,5.20
2018-05-31T00:27:23.078Z,5.90
2018-05-31T00:29:51.612Z,5.00
2018-05-31T00:32:19.233Z,5.30
2018-05-31T00:34:46.916Z,5.40
2018-05-31T00:37:14.543Z,4.83
2018-05-31T00:39:42.151Z,4.80
2018-05-31T00:42:09.771Z,5.10
2018-05-31T00:44:37.379Z,6.03
2018-05-31T00:47:04.987Z,6.50
2018-05-31T00:49:32.640Z,6.90
2018-05-31T00:52:00.221Z,7.00
2018-05-31T00:54:28.996Z,7.72
2018-05-31T00:56:56.593Z,7.77
2018-05-31T00:59:24.240Z,6.97
2018-05-31T01:01:51.817Z,6.60
2018-05-31T01:04:19.442Z,6.80
2018-05-31T01:06:47.044Z,5.87
2018-05-31T01:09:14.672Z,7.10
2018-05-31T01:11:42.295Z,5.97
2018-05-31T01:14:10.674Z,5.73
2018-05-31T01:16:39.046Z,6.40
2018-05-31T01:19:06.775Z,6.43
2018-05-31T01:21:45.510Z,6.23
2018-05-31T01:24:13.119Z,6.40
2018-05-31T01:26:40.727Z,7.20
2018-05-31T01:29:08.362Z,7.67
2018-05-31T01:31:36.008Z,7.73
2018-05-31T01:34:03.566Z,9.07
2018-05-31T01:36:31.136Z,7.37
2018-05-31T01:38:58.805Z,8.40
2018-05-31T01:41:26.436Z,8.50
2018-05-31T01:43:54.084Z,9.77
2018-05-31T01:46:22.476Z,10.23
2018-05-31T01:48:50.901Z,9.67
2018-05-31T01:51:18.529Z,10.27
2018-05-31T01:53:46.130Z,9.43
2018-05-31T01:56:13.755Z,9.90
2018-05-31T01:58:41.344Z,9.93
2018-05-31T02:01:08.969Z,10.20
2018-05-31T02:03:36.598Z,10.67
2018-05-31T02:06:04.205Z,11.13
2018-05-31T02:08:31.822Z,10.57
2018-05-31T02:10:59.444Z,10.90
2018-05-31T02:13:27.078Z,9.83
2018-05-31T02:15:54.688Z,10.60
2018-05-31T02:18:22.300Z,9.97
2018-05-31T02:20:49.873Z,10.00
2018-05-31T02:23:17.480Z,10.70
2018-05-31T02:25:45.128Z,10.30
2018-05-31T02:28:12.766Z,9.97
2018-05-31T02:30:40.368Z,9.97
2018-05-31T02:33:08.762Z,9.60
2018-05-31T02:35:37.166Z,10.07
2018-05-31T02:38:04.796Z,8.67
2018-05-31T02:40:32.435Z,9.17
2018-05-31T02:43:00.046Z,8.53
2018-05-31T02:45:27.650Z,8.07
2018-05-31T02:47:55.308Z,7.70
2018-05-31T02:50:22.933Z,8.07
2018-05-31T02:52:50.494Z,8.43
2018-05-31T02:55:18.119Z,7.80
2018-05-31T02:57:46.507Z,8.03
2018-05-31T03:00:14.890Z,8.93
2018-05-31T03:02:43.272Z,9.73
2018-05-31T03:05:10.967Z,9.45
2018-05-31T03:07:38.579Z,9.47
2018-05-31T03:10:06.202Z,8.40
2018-05-31T03:12:33.840Z,7.90
2018-05-31T03:15:01.414Z,8.43
2018-05-31T03:17:29.026Z,9.47
2018-05-31T03:19:57.427Z,9.37
2018-05-31T03:22:25.050Z,8.70
2018-05-31T03:24:55.081Z,8.80
2018-05-31T03:27:23.498Z,8.70
2018-05-31T03:29:51.117Z,7.87
2018-05-31T03:32:19.552Z,10.00
2018-05-31T03:34:47.136Z,10.27
2018-05-31T03:37:14.764Z,10.60
2018-05-31T03:39:42.392Z,9.80
2018-05-31T03:42:10.730Z,8.47
2018-05-31T03:44:38.336Z,9.27
2018-05-31T03:47:06.760Z,8.50
2018-05-31T03:49:34.370Z,8.60
2018-05-31T03:52:02.736Z,8.47
2018-05-31T03:54:30.356Z,8.10
2018-05-31T03:56:57.932Z,8.20
2018-05-31T03:59:25.540Z,8.63
2018-05-31T04:01:53.884Z,6.93
2018-05-31T04:04:21.486Z,7.27
2018-05-31T04:06:49.128Z,7.50
2018-05-31T04:09:17.488Z,7.33
2018-05-31T04:11:45.982Z,8.00
2018-05-31T04:14:14.702Z,6.47
2018-05-31T04:16:42.338Z,6.93
2018-05-31T04:19:10.724Z,6.90
2018-05-31T04:21:38.360Z,6.60
2018-05-31T04:24:05.989Z,6.67
2018-05-31T04:26:33.600Z,6.77
2018-05-31T04:29:05.465Z,6.67
2018-05-31T04:31:33.869Z,6.60
2018-05-31T04:34:01.488Z,7.60
2018-05-31T04:36:29.889Z,6.60
2018-05-31T04:38:57.505Z,6.53
2018-05-31T04:41:25.126Z,6.70
2018-05-31T04:43:53.684Z,6.40
2018-05-31T04:46:22.064Z,5.90
2018-05-31T04:48:50.430Z,5.80
2018-05-31T04:51:18.044Z,5.17
2018-05-31T04:53:45.669Z,5.10
2018-05-31T04:56:13.286Z,4.57
2018-05-31T04:58:40.909Z,5.20
2018-05-31T05:01:08.518Z,5.78
2018-05-31T05:03:36.138Z,5.60
2018-05-31T05:06:03.718Z,5.60
2018-05-31T05:08:31.338Z,4.93
2018-05-31T05:10:58.968Z,5.30
2018-05-31T05:13:26.548Z,6.10
2018-05-31T05:15:54.899Z,6.18
2018-05-31T05:18:22.522Z,5.60
2018-05-31T05:20:50.156Z,5.43
2018-05-31T05:23:18.523Z,5.45
2018-05-31T05:25:46.158Z,6.33
2018-05-31T05:28:13.772Z,6.30
2018-05-31T05:30:41.429Z,6.07
2018-05-31T05:33:09.057Z,6.97
2018-05-31T05:35:36.618Z,7.32
2018-05-31T05:38:07.304Z,6.80
2018-05-31T05:40:34.948Z,7.30
2018-05-31T05:43:02.554Z,6.60
2018-05-31T05:45:30.176Z,7.30
2018-05-31T05:47:57.838Z,7.27
2018-05-31T05:50:25.464Z,6.30
2018-05-31T05:52:53.801Z,6.27
2018-05-31T05:55:21.441Z,6.62
2018-05-31T06:03:43.356Z,6.47
2018-05-31T06:06:10.927Z,5.60
2018-05-31T06:08:38.564Z,6.03
2018-05-31T06:11:06.220Z,6.28
2018-05-31T06:13:33.867Z,5.22
2018-05-31T06:16:05.476Z,4.80
2018-05-31T06:18:33.865Z,5.03
2018-05-31T06:21:02.285Z,5.70
2018-05-31T06:23:29.927Z,5.40
2018-05-31T06:25:58.483Z,4.80
2018-05-31T06:28:26.864Z,5.30
2018-05-31T06:30:54.515Z,4.97
2018-05-31T06:33:22.140Z,5.28
2018-05-31T06:35:49.768Z,5.05
2018-05-31T06:38:18.121Z,4.85
2018-05-31T06:40:45.752Z,5.12
2018-05-31T06:43:13.359Z,4.50
2018-05-31T06:45:41.742Z,4.60
2018-05-31T06:48:10.125Z,4.50
2018-05-31T06:50:38.494Z,5.05
2018-05-31T06:53:06.850Z,4.53
2018-05-31T06:55:34.454Z,5.00
2018-05-31T06:58:02.039Z,5.28
2018-05-31T07:00:29.656Z,5.00
2018-05-31T07:06:09.216Z,4.70
2018-05-31T07:08:37.612Z,5.32
2018-05-31T07:11:05.203Z,5.80
2018-05-31T07:13:32.836Z,5.10
2018-05-31T07:16:00.540Z,5.18
2018-05-31T07:18:28.155Z,4.68
2018-05-31T07:20:55.807Z,5.40
2018-05-31T07:23:24.189Z,4.15
2018-05-31T07:25:52.567Z,5.18
2018-05-31T07:28:20.202Z,4.57
2018-05-31T07:30:47.831Z,4.20
2018-05-31T07:33:15.441Z,4.00
2018-05-31T07:35:43.787Z,4.70
2018-05-31T07:38:11.429Z,4.82
2018-05-31T07:40:39.070Z,4.50
2018-05-31T07:43:06.719Z,4.53
2018-05-31T07:45:34.321Z,4.20
2018-05-31T07:48:01.914Z,4.25
2018-05-31T07:50:29.512Z,4.90
2018-05-31T07:52:58.079Z,5.75
2018-05-31T07:55:26.565Z,5.07
2018-05-31T07:57:54.125Z,4.80
2018-05-31T08:00:22.745Z,5.20
2018-05-31T08:02:50.415Z,4.80
2018-05-31T08:05:17.997Z,4.40
2018-05-31T08:07:45.589Z,4.65
2018-05-31T08:10:13.186Z,4.78
2018-05-31T08:12:40.769Z,5.20
2018-05-31T08:15:08.402Z,5.10
2018-05-31T08:17:36.071Z,4.40
2018-05-31T08:20:03.707Z,4.75
2018-05-31T08:22:31.289Z,5.00
2018-05-31T08:24:58.958Z,5.28
2018-05-31T08:27:26.522Z,4.90
2018-05-31T08:29:54.107Z,5.87
2018-05-31T08:32:21.737Z,5.00
2018-05-31T08:34:49.347Z,5.20
2018-05-31T08:37:17.775Z,5.40
2018-05-31T08:39:45.383Z,5.05
2018-05-31T08:42:14.080Z,5.30
2018-05-31T08:44:42.483Z,5.87
2018-05-31T08:47:10.105Z,5.20
2018-05-31T08:49:37.743Z,5.50
2018-05-31T08:52:05.669Z,4.80
2018-05-31T08:54:33.411Z,5.55
2018-05-31T08:57:01.802Z,5.15
2018-05-31T08:59:29.388Z,5.55
2018-05-31T09:01:56.985Z,4.78
2018-05-31T09:04:25.315Z,5.20
2018-05-31T09:06:52.925Z,4.68
2018-05-31T09:09:20.566Z,5.10
2018-05-31T09:11:48.160Z,4.80
2018-05-31T09:14:15.783Z,4.80
2018-05-31T09:16:43.626Z,5.45
2018-05-31T09:19:11.253Z,5.28
2018-05-31T09:21:39.647Z,5.78
2018-05-31T09:24:08.001Z,5.22
2018-05-31T09:26:35.597Z,5.75
2018-05-31T09:29:03.203Z,5.07
2018-05-31T09:31:30.781Z,5.70
2018-05-31T09:33:58.377Z,5.47
2018-05-31T09:36:25.985Z,6.10
2018-05-31T09:38:53.613Z,6.28
2018-05-31T09:41:21.211Z,5.40
2018-05-31T09:43:48.816Z,5.35
2018-05-31T09:46:16.443Z,5.80
2018-05-31T09:48:44.104Z,5.40
2018-05-31T09:51:12.533Z,5.68
2018-05-31T09:53:40.445Z,6.90
2018-05-31T09:56:08.049Z,5.10
2018-05-31T09:58:35.671Z,5.85
2018-05-31T10:01:03.331Z,5.78
2018-05-31T10:03:30.945Z,6.03
2018-05-31T10:05:58.547Z,6.45
2018-05-31T10:08:26.183Z,6.50
2018-05-31T10:10:53.807Z,6.30
2018-05-31T10:13:22.211Z,6.30
2018-05-31T10:15:49.791Z,6.47
2018-05-31T10:18:17.426Z,7.30
2018-05-31T10:20:45.041Z,6.43
2018-05-31T10:23:12.977Z,6.50
2018-05-31T10:25:40.543Z,6.82
2018-05-31T10:28:08.143Z,5.90
2018-05-31T10:30:36.507Z,7.43
2018-05-31T10:33:04.240Z,6.75
2018-05-31T10:35:31.912Z,6.30
2018-05-31T10:37:59.551Z,5.43
2018-05-31T10:40:27.170Z,6.00
2018-05-31T10:42:55.544Z,5.53
2018-05-31T10:45:23.941Z,6.15
2018-05-31T10:47:51.534Z,6.12
2018-05-31T10:50:19.141Z,5.55
2018-05-31T10:52:46.721Z,5.32
2018-05-31T10:55:15.098Z,6.25
2018-05-31T10:57:43.470Z,5.03
2018-05-31T11:00:11.838Z,6.05
2018-05-31T11:02:39.436Z,6.03
2018-05-31T11:05:07.030Z,6.37
2018-05-31T11:07:34.646Z,5.95
2018-05-31T11:10:02.267Z,6.97
2018-05-31T11:12:29.831Z,6.40
2018-05-31T11:14:57.490Z,6.22
2018-05-31T11:17:25.084Z,6.37
2018-05-31T11:19:53.478Z,5.55
2018-05-31T11:22:21.094Z,5.75
2018-05-31T11:24:48.700Z,5.55
2018-05-31T11:27:18.376Z,5.47
2018-05-31T11:29:46.804Z,5.35
2018-05-31T11:32:14.409Z,4.80
2018-05-31T11:34:48.133Z,5.40
2018-05-31T11:37:16.004Z,5.43
2018-05-31T11:39:43.658Z,5.62
2018-05-31T11:42:12.042Z,5.07
2018-05-31T11:44:40.386Z,4.78
2018-05-31T11:47:09.472Z,5.43
2018-05-31T11:49:37.072Z,5.62
2018-05-31T11:52:05.450Z,4.95
2018-05-31T11:54:33.810Z,5.78
2018-05-31T11:57:01.379Z,5.70
2018-05-31T11:59:29.764Z,4.70
2018-05-31T12:01:58.132Z,4.80
2018-05-31T12:04:25.726Z,4.57
2018-05-31T12:06:53.324Z,5.00
2018-05-31T12:09:20.886Z,5.00
2018-05-31T12:11:48.484Z,4.45
2018-05-31T12:14:16.834Z,4.57
2018-05-31T12:16:44.476Z,4.43
2018-05-31T12:19:12.106Z,4.37
2018-05-31T12:21:39.724Z,5.10
2018-05-31T12:24:07.300Z,4.30
2018-05-31T12:26:35.684Z,4.40
2018-05-31T12:29:04.048Z,4.62
2018-05-31T12:31:31.664Z,4.78
2018-05-31T12:33:59.298Z,4.37
2018-05-31T12:36:26.906Z,4.55
2018-05-31T12:38:54.510Z,4.57
2018-05-31T12:41:22.902Z,4.93
2018-05-31T12:43:50.517Z,4.70
2018-05-31T12:46:18.076Z,4.50
2018-05-31T12:48:45.691Z,4.40
2018-05-31T12:51:13.296Z,4.35
2018-05-31T12:53:40.956Z,4.50
2018-05-31T12:56:08.529Z,4.55
2018-05-31T12:58:36.099Z,4.68
2018-05-31T13:01:03.679Z,4.65
2018-05-31T13:03:32.055Z,4.40
2018-05-31T13:05:59.692Z,4.35
2018-05-31T13:08:27.287Z,4.32
2018-05-31T13:10:54.890Z,4.60
2018-05-31T13:13:22.487Z,4.45
2018-05-31T13:15:50.084Z,4.40
2018-05-31T13:18:17.694Z,4.43
2018-05-31T13:20:45.276Z,4.20
2018-05-31T13:23:13.649Z,3.95
2018-05-31T13:25:42.068Z,4.10
2018-05-31T13:28:09.695Z,4.22
2018-05-31T13:30:38.076Z,4.18
2018-05-31T13:33:06.487Z,4.40
2018-05-31T13:35:34.093Z,4.00
2018-05-31T13:38:01.689Z,3.87
2018-05-31T13:40:29.301Z,3.50
2018-05-31T13:42:56.903Z,3.67
2018-05-31T13:45:25.253Z,4.05
2018-05-31T13:47:52.890Z,3.62
2018-05-31T13:50:20.486Z,3.70
2018-05-31T13:52:48.886Z,3.22
2018-05-31T13:55:16.559Z,3.60
2018-05-31T13:57:44.130Z,3.50
2018-05-31T14:00:11.766Z,4.05
2018-05-31T14:02:40.106Z,3.60
2018-05-31T14:05:07.738Z,3.65
2018-05-31T14:07:35.360Z,3.30
2018-05-31T14:10:03.706Z,3.53
2018-05-31T14:12:32.848Z,3.55
2018-05-31T14:15:00.442Z,3.67
2018-05-31T14:17:28.058Z,3.08
2018-05-31T14:19:56.452Z,3.60
2018-05-31T14:22:24.056Z,3.33
2018-05-31T14:24:51.691Z,3.75
2018-05-31T14:27:19.303Z,3.70
2018-05-31T14:29:46.846Z,3.87
2018-05-31T14:32:14.407Z,3.42
2018-05-31T14:34:42.015Z,3.60
2018-05-31T14:37:09.641Z,3.62
2018-05-31T14:39:37.286Z,3.37
2018-05-31T14:42:04.906Z,3.80
2018-05-31T14:44:32.524Z,3.90
2018-05-31T14:47:00.152Z,3.72
2018-05-31T14:49:27.757Z,3.35
2018-05-31T14:51:56.140Z,3.83
2018-05-31T14:54:24.535Z,3.30
2018-05-31T14:56:52.184Z,3.42
2018-05-31T14:59:20.564Z,4.62
2018-05-31T15:01:48.924Z,4.78
2018-05-31T15:04:16.518Z,5.57
2018-05-31T15:06:44.134Z,4.80
2018-05-31T15:09:11.748Z,5.22
2018-05-31T15:11:39.340Z,5.20
2018-05-31T15:14:06.930Z,5.10
2018-05-31T15:16:34.516Z,4.83
2018-05-31T15:19:02.098Z,4.90
2018-05-31T15:21:29.710Z,4.70
2018-05-31T15:23:58.108Z,4.93
2018-05-31T15:26:25.756Z,5.15
2018-05-31T15:28:54.116Z,4.40
2018-05-31T15:31:21.726Z,4.28
2018-05-31T15:33:49.454Z,4.53
2018-05-31T15:36:17.828Z,4.80
2018-05-31T15:38:45.468Z,4.25
2018-05-31T15:41:13.068Z,3.92
2018-05-31T15:43:41.477Z,5.28
2018-05-31T15:46:09.076Z,6.12
2018-05-31T15:48:36.708Z,4.93
2018-05-31T15:51:04.348Z,4.40
2018-05-31T15:53:32.059Z,4.85
2018-05-31T15:56:00.420Z,4.82
2018-05-31T15:58:28.080Z,4.72
2018-05-31T16:00:55.706Z,4.65
2018-05-31T16:03:23.316Z,4.82
2018-05-31T16:05:50.928Z,4.65
2018-05-31T16:08:18.558Z,5.07
2018-05-31T16:10:46.136Z,4.72
2018-05-31T16:13:14.525Z,4.90
2018-05-31T16:15:42.124Z,5.30
2018-05-31T16:18:09.760Z,4.68
2018-05-31T16:20:37.365Z,5.28
2018-05-31T16:23:04.953Z,4.78
2018-05-31T16:25:33.342Z,4.18
2018-05-31T16:28:01.702Z,4.10
2018-05-31T16:30:29.304Z,4.80
2018-05-31T16:32:56.930Z,3.87
2018-05-31T16:35:25.332Z,5.50
2018-05-31T16:37:52.950Z,4.40
2018-05-31T16:40:20.546Z,4.35
2018-05-31T16:42:48.176Z,4.20
2018-05-31T16:45:15.770Z,4.30
2018-05-31T16:47:43.398Z,5.32
2018-05-31T16:50:11.059Z,4.50
2018-05-31T16:52:38.622Z,4.62
2018-05-31T16:55:06.193Z,4.75
2018-05-31T16:57:33.777Z,4.55
2018-05-31T17:00:01.404Z,4.80
2018-05-31T17:02:28.966Z,5.68
2018-05-31T17:04:56.586Z,5.85
2018-05-31T17:07:24.208Z,5.87
2018-05-31T17:09:51.804Z,6.25
2018-05-31T17:12:19.384Z,5.87
2018-05-31T17:14:46.955Z,6.03
2018-05-31T17:17:14.599Z,5.85
2018-05-31T17:19:42.216Z,5.55
2018-05-31T17:22:09.892Z,5.82
2018-05-31T17:24:37.486Z,6.53
2018-05-31T17:27:05.108Z,6.17
2018-05-31T17:29:32.812Z,5.85
2018-05-31T17:32:00.394Z,5.47
2018-05-31T17:34:28.016Z,5.30
2018-05-31T17:36:57.168Z,4.78
2018-05-31T17:39:25.560Z,5.00
2018-05-31T17:41:53.936Z,5.03
2018-05-31T17:44:21.546Z,5.33
2018-05-31T17:46:49.124Z,5.00
2018-05-31T17:49:16.739Z,5.40
2018-05-31T17:51:44.288Z,5.13
2018-05-31T17:54:11.914Z,5.13
2018-05-31T17:56:39.536Z,4.97
2018-05-31T17:59:07.136Z,5.07
2018-05-31T18:01:34.771Z,5.17
2018-05-31T18:04:02.330Z,4.93
2018-05-31T18:06:29.966Z,4.90
2018-05-31T18:08:57.556Z,4.70
2018-05-31T18:11:25.161Z,5.20
2018-05-31T18:13:53.534Z,4.83
2018-05-31T18:16:21.914Z,5.00
2018-05-31T18:18:50.307Z,5.47
2018-05-31T18:21:17.936Z,5.27
2018-05-31T18:23:45.512Z,5.27
2018-05-31T18:26:13.904Z,5.70
2018-05-31T18:28:42.262Z,5.60
2018-05-31T18:31:09.982Z,6.00
2018-05-31T18:33:37.590Z,5.50
2018-05-31T18:36:05.946Z,6.27
2018-05-31T18:38:33.562Z,5.80
2018-05-31T18:41:01.175Z,5.73
2018-05-31T18:43:28.829Z,5.77
2018-05-31T18:45:56.448Z,6.20
2018-05-31T18:48:24.067Z,6.07
2018-05-31T18:50:51.695Z,6.40
2018-05-31T18:53:19.339Z,6.47
2018-05-31T18:55:46.935Z,5.53
2018-05-31T18:58:14.594Z,6.07
2018-05-31T19:00:42.199Z,5.77
2018-05-31T19:03:09.814Z,5.80
2018-05-31T19:05:37.434Z,6.23
2018-05-31T19:08:05.050Z,6.30
2018-05-31T19:10:32.664Z,6.67
2018-05-31T19:13:05.877Z,6.90
2018-05-31T19:15:33.658Z,5.80
2018-05-31T19:18:01.243Z,5.70
2018-05-31T19:20:29.624Z,6.37
2018-05-31T19:22:58.016Z,6.53
2018-05-31T19:25:26.378Z,5.60
2018-05-31T19:27:53.959Z,6.47
2018-05-31T19:30:28.067Z,6.17
2018-05-31T19:32:55.664Z,5.67
2018-05-31T19:35:28.881Z,5.87
2018-05-31T19:37:56.469Z,5.93
2018-05-31T19:40:24.836Z,6.13
2018-05-31T19:42:58.119Z,6.07
2018-05-31T19:45:25.733Z,6.43
2018-05-31T19:47:53.334Z,6.17
2018-05-31T19:50:20.943Z,5.87
2018-05-31T19:52:54.236Z,6.40
2018-05-31T19:55:21.864Z,6.30
2018-05-31T19:57:55.101Z,6.07
2018-05-31T20:00:28.303Z,6.23
2018-05-31T20:03:01.688Z,5.90
2018-05-31T20:05:29.276Z,7.10
2018-05-31T20:07:56.873Z,6.17
2018-05-31T20:10:25.275Z,5.40
2018-05-31T20:12:52.901Z,6.00
2018-05-31T20:15:20.509Z,5.67
2018-05-31T20:17:48.129Z,5.00
2018-05-31T20:20:15.779Z,5.20
2018-05-31T20:22:43.421Z,5.43
2018-05-31T20:25:11.044Z,5.30
2018-05-31T20:27:38.669Z,5.40
2018-05-31T20:30:06.330Z,5.10
2018-05-31T20:32:33.971Z,5.07
2018-05-31T20:35:01.598Z,4.97
2018-05-31T20:37:29.235Z,5.07
2018-05-31T20:39:57.658Z,5.30
2018-05-31T20:42:25.283Z,5.50
2018-05-31T20:44:53.645Z,5.70
2018-05-31T20:47:22.255Z,5.68
2018-05-31T20:49:49.856Z,5.53
2018-05-31T20:52:17.459Z,6.20
2018-05-31T20:54:45.865Z,6.03
2018-05-31T20:57:13.449Z,5.70
2018-05-31T20:59:41.059Z,5.77
2018-05-31T21:02:09.453Z,5.90
2018-05-31T21:04:37.056Z,6.53
2018-05-31T21:07:04.635Z,6.27
2018-05-31T21:09:32.218Z,5.80
2018-05-31T21:12:00.617Z,6.43
2018-05-31T21:14:28.243Z,5.40
2018-05-31T21:16:55.899Z,5.97
2018-05-31T21:19:23.511Z,5.90
2018-05-31T21:21:51.138Z,6.00
2018-05-31T21:24:19.491Z,5.83
2018-05-31T21:26:47.129Z,6.17
2018-05-31T21:29:14.751Z,6.00
2018-05-31T21:31:42.716Z,5.33
2018-05-31T21:34:11.086Z,5.93
2018-05-31T21:36:39.437Z,5.93
2018-05-31T21:39:07.046Z,5.90
2018-05-31T21:41:34.638Z,5.40
2018-05-31T21:44:02.215Z,5.90
2018-05-31T21:46:29.843Z,6.07
2018-05-31T21:48:57.386Z,5.33
2018-05-31T21:51:24.985Z,6.00
2018-05-31T21:53:52.562Z,5.60
2018-05-31T21:56:20.173Z,5.97
2018-05-31T21:58:47.782Z,5.33
2018-05-31T22:01:15.343Z,5.80
2018-05-31T22:03:42.931Z,6.27
2018-05-31T22:06:11.277Z,5.50
2018-05-31T22:08:38.889Z,5.30
2018-05-31T22:11:06.475Z,5.90
2018-05-31T22:13:34.070Z,6.57
2018-05-31T22:16:01.664Z,5.20
2018-05-31T22:18:29.301Z,5.20
2018-05-31T22:20:56.898Z,5.20
2018-05-31T22:23:24.465Z,5.40
2018-05-31T22:25:52.061Z,5.07
2018-05-31T22:28:19.637Z,5.67
2018-05-31T22:30:47.231Z,5.00
2018-05-31T22:33:14.799Z,5.17
2018-05-31T22:35:42.371Z,5.63
2018-05-31T22:38:09.981Z,5.23
2018-05-31T22:40:37.603Z,5.70
2018-05-31T22:43:05.183Z,7.00
2018-05-31T22:45:32.770Z,6.43
2018-05-31T22:48:01.159Z,6.22
2018-05-31T22:50:29.517Z,6.37
2018-05-31T22:52:57.131Z,7.13
2018-05-31T22:55:24.755Z,7.50
2018-05-31T22:57:52.400Z,6.63
2018-05-31T23:00:20.742Z,7.10
2018-05-31T23:02:48.343Z,7.83
2018-05-31T23:05:15.950Z,7.33
2018-05-31T23:07:44.656Z,7.22
2018-05-31T23:10:12.275Z,5.50
2018-05-31T23:12:40.639Z,6.87
2018-05-31T23:15:09.029Z,6.67
2018-05-31T23:17:36.667Z,6.57
2018-05-31T23:20:04.251Z,6.50
2018-05-31T23:22:32.633Z,6.60
2018-05-31T23:25:00.265Z,6.90
2018-05-31T23:27:27.887Z,6.33
2018-05-31T23:29:55.553Z,7.40
2018-05-31T23:32:23.171Z,8.50
2018-05-31T23:34:51.553Z,8.50
2018-05-31T23:37:19.943Z,9.10
2018-05-31T23:39:47.531Z,8.90
2018-05-31T23:42:15.107Z,8.27
2018-05-31T23:44:42.688Z,8.17
2018-05-31T23:47:10.274Z,9.20
2018-05-31T23:49:37.893Z,9.20
2018-05-31T23:52:05.450Z,9.53
2018-05-31T23:54:33.051Z,7.83
2018-05-31T23:57:01.410Z,8.73
2018-05-31T23:59:29.029Z,7.53
